Time;durP1;ratioP1;P1;durP2;ratioP2;P2;SDS_P1;SDS_P2;PMS_P1;PMS_P2;Temp;Humidity;BMP_temperature;BMP_pressure;BME280_temperature;BME280_humidity;BME280_pressure;Samples;Min_cycle;Max_cycle;Signal;HPM_P1;HPM_P2
2021/08/02 00:01:29;;;;;;;9.45;3.33;;;;;;;;;;4947867;28;20431;-73
2021/08/02 00:04:05;;;;;;;6.75;3.60;;;;;;;;;;4969751;28;20113;-74
2021/08/02 00:06:46;;;;;;;7.57;3.90;;;;;;;;;;4954734;28;20034;-73
2021/08/02 00:09:13;;;;;;;7.18;3.97;;;;;;;;;;4968578;28;20450;-73
2021/08/02 00:11:42;;;;;;;7.75;3.95;;;;;;;;;;4974017;28;20483;-73
2021/08/02 00:14:08;;;;;;;6.15;3.60;;;;;;;;;;4940850;28;20090;-74
2021/08/02 00:16:35;;;;;;;8.13;3.63;;;;;;;;;;4938364;28;20125;-74
2021/08/02 00:19:00;;;;;;;11.05;4.10;;;;;;;;;;4970389;28;20034;-73
2021/08/02 00:21:26;;;;;;;6.85;3.90;;;;;;;;;;4950275;28;20042;-74
2021/08/02 00:23:51;;;;;;;6.07;3.53;;;;;;;;;;4969077;28;20056;-73
2021/08/02 00:26:17;;;;;;;8.35;4.13;;;;;;;;;;4953169;28;20088;-73
2021/08/02 00:28:43;;;;;;;6.60;3.60;;;;;;;;;;4972611;28;20070;-73
2021/08/02 00:31:08;;;;;;;6.47;3.97;;;;;;;;;;4969296;28;20053;-74
2021/08/02 00:33:36;;;;;;;9.00;3.88;;;;;;;;;;4940910;28;20031;-74
2021/08/02 00:36:25;;;;;;;7.03;3.95;;;;;;;;;;4958015;28;20387;-74
2021/08/02 00:39:05;;;;;;;6.45;4.00;;;;;;;;;;4953484;28;20059;-73
2021/08/02 00:41:31;;;;;;;8.02;4.00;;;;;;;;;;4971467;28;20054;-74
2021/08/02 00:44:16;;;;;;;9.52;4.38;;;;;;;;;;4958255;28;20503;-73
2021/08/02 00:46:46;;;;;;;10.98;4.28;;;;;;;;;;4957675;28;20577;-73
2021/08/02 00:49:12;;;;;;;7.40;3.97;;;;;;;;;;4978252;28;20034;-73
2021/08/02 00:51:41;;;;;;;7.65;4.65;;;;;;;;;;4953670;28;20045;-73
2021/08/02 00:54:08;;;;;;;8.63;4.32;;;;;;;;;;4955522;28;20031;-73
2021/08/02 00:56:34;;;;;;;6.43;4.00;;;;;;;;;;4953043;28;20129;-74
2021/08/02 00:59:04;;;;;;;7.05;4.03;;;;;;;;;;4934383;28;20034;-74
2021/08/02 01:01:31;;;;;;;11.48;4.57;;;;;;;;;;4956559;28;20072;-73
2021/08/02 01:03:58;;;;;;;5.93;4.03;;;;;;;;;;4968226;28;20491;-74
2021/08/02 01:06:26;;;;;;;7.50;3.78;;;;;;;;;;4950544;28;20030;-74
2021/08/02 01:08:52;;;;;;;7.93;4.00;;;;;;;;;;4971977;28;20035;-74
2021/08/02 01:11:20;;;;;;;7.60;4.40;;;;;;;;;;4969253;28;20109;-73
2021/08/02 01:13:47;;;;;;;7.45;3.78;;;;;;;;;;4953504;28;20062;-73
2021/08/02 01:16:13;;;;;;;8.30;4.17;;;;;;;;;;4971741;28;20052;-74
2021/08/02 01:18:43;;;;;;;7.03;4.15;;;;;;;;;;4951139;28;20077;-73
2021/08/02 01:21:13;;;;;;;7.78;4.30;;;;;;;;;;4958176;28;20049;-73
2021/08/02 01:23:44;;;;;;;10.13;5.00;;;;;;;;;;4939182;28;20594;-74
2021/08/02 01:26:22;;;;;;;7.57;4.05;;;;;;;;;;4973522;28;20075;-74
2021/08/02 01:29:07;;;;;;;6.53;3.92;;;;;;;;;;4970856;28;20046;-73
2021/08/02 01:31:34;;;;;;;6.53;4.10;;;;;;;;;;4956853;28;20274;-74
2021/08/02 01:33:59;;;;;;;8.88;3.85;;;;;;;;;;4949530;28;20492;-74
2021/08/02 01:36:26;;;;;;;7.57;4.32;;;;;;;;;;4970984;28;20039;-73
2021/08/02 01:38:55;;;;;;;6.82;4.20;;;;;;;;;;4968010;28;20050;-73
2021/08/02 01:41:28;;;;;;;7.53;4.00;;;;;;;;;;4959192;28;20034;-74
2021/08/02 01:43:54;;;;;;;6.53;4.10;;;;;;;;;;4953567;28;20030;-74
2021/08/02 01:46:41;;;;;;;9.02;4.60;;;;;;;;;;4953994;28;20061;-73
2021/08/02 01:49:12;;;;;;;6.70;4.07;;;;;;;;;;4972455;28;20035;-74
2021/08/02 01:51:47;;;;;;;12.50;4.32;;;;;;;;;;4957444;28;20503;-73
2021/08/02 01:54:22;;;;;;;7.78;4.20;;;;;;;;;;4933753;28;20066;-74
2021/08/02 01:57:07;;;;;;;6.22;3.90;;;;;;;;;;4967164;28;20125;-74
2021/08/02 01:59:45;;;;;;;9.93;4.60;;;;;;;;;;4955047;28;20034;-73
2021/08/02 02:02:13;;;;;;;11.15;4.60;;;;;;;;;;4972608;28;20467;-74
2021/08/02 02:04:44;;;;;;;6.35;4.03;;;;;;;;;;4936724;28;20023;-73
2021/08/02 02:07:12;;;;;;;6.80;4.13;;;;;;;;;;4957410;28;20034;-73
2021/08/02 02:09:49;;;;;;;6.65;4.57;;;;;;;;;;4953914;28;20658;-73
2021/08/02 02:12:15;;;;;;;8.57;4.10;;;;;;;;;;4973480;28;20030;-73
2021/08/02 02:14:42;;;;;;;6.40;3.78;;;;;;;;;;4971864;28;20395;-73
2021/08/02 02:17:17;;;;;;;7.00;3.83;;;;;;;;;;4968516;28;20030;-73
2021/08/02 02:19:45;;;;;;;7.68;3.70;;;;;;;;;;4938843;28;20101;-74
2021/08/02 02:22:13;;;;;;;7.85;3.85;;;;;;;;;;4939829;28;20039;-74
2021/08/02 02:24:40;;;;;;;;;;;;;;;;;;4954440;28;20034;-73
2021/08/02 02:27:10;;;;;;;7.57;4.15;;;;;;;;;;4955308;28;19972;-74
2021/08/02 02:29:40;;;;;;;8.70;4.35;;;;;;;;;;4955392;28;20128;-73
2021/08/02 02:32:08;;;;;;;7.88;4.28;;;;;;;;;;4940240;28;20034;-74
2021/08/02 02:34:35;;;;;;;7.00;4.20;;;;;;;;;;4972494;28;20045;-74
2021/08/02 02:37:01;;;;;;;11.32;4.43;;;;;;;;;;4968441;28;20791;-74
2021/08/02 02:39:31;;;;;;;8.38;4.38;;;;;;;;;;4956164;28;20047;-74
2021/08/02 02:41:58;;;;;;;9.43;4.22;;;;;;;;;;4957525;28;20038;-74
2021/08/02 02:44:24;;;;;;;8.02;4.68;;;;;;;;;;4980698;28;20057;-74
2021/08/02 02:46:51;;;;;;;;;;;;;;;;;;4961165;28;20102;-74
2021/08/02 02:49:17;;;;;;;6.32;4.10;;;;;;;;;;4981916;28;19964;-74
2021/08/02 02:51:43;;;;;;;6.95;4.00;;;;;;;;;;4950756;28;20085;-74
2021/08/02 02:54:10;;;;;;;7.80;4.07;;;;;;;;;;4969908;28;20035;-74
2021/08/02 02:56:36;;;;;;;9.73;4.35;;;;;;;;;;4951670;28;20455;-74
2021/08/02 02:59:03;;;;;;;6.13;3.95;;;;;;;;;;4952476;28;20113;-73
2021/08/02 03:01:37;;;;;;;7.80;3.80;;;;;;;;;;4953131;28;20510;-74
2021/08/02 03:04:05;;;;;;;6.03;3.83;;;;;;;;;;4941023;28;20030;-74
2021/08/02 03:06:32;;;;;;;7.05;3.90;;;;;;;;;;4968096;28;20031;-74
2021/08/02 03:08:59;;;;;;;6.97;4.03;;;;;;;;;;4952772;28;20101;-74
2021/08/02 03:11:24;;;;;;;7.93;4.32;;;;;;;;;;4973511;28;20114;-74
2021/08/02 03:13:51;;;;;;;11.77;5.13;;;;;;;;;;4969281;28;20030;-74
2021/08/02 03:16:25;;;;;;;7.53;4.57;;;;;;;;;;4952242;28;20395;-74
2021/08/02 03:18:52;;;;;;;9.27;4.03;;;;;;;;;;4965530;28;20077;-74
2021/08/02 03:21:18;;;;;;;6.90;3.92;;;;;;;;;;4972342;28;20026;-74
2021/08/02 03:23:50;;;;;;;10.77;4.32;;;;;;;;;;4956793;28;20341;-74
2021/08/02 03:26:20;;;;;;;8.52;4.13;;;;;;;;;;4976040;28;20073;-74
2021/08/02 03:28:46;;;;;;;8.57;4.75;;;;;;;;;;4954541;28;20042;-74
2021/08/02 03:31:15;;;;;;;6.72;4.10;;;;;;;;;;4956997;28;20049;-74
2021/08/02 03:33:41;;;;;;;6.60;4.32;;;;;;;;;;4975601;28;20054;-74
2021/08/02 03:36:09;;;;;;;7.43;4.32;;;;;;;;;;4972581;28;20066;-75
2021/08/02 03:38:34;;;;;;;;;;;;;;;;;;4978119;28;20038;-75
2021/08/02 03:41:00;;;;;;;13.05;6.65;;;;;;;;;;4975767;28;19913;-74
2021/08/02 03:43:26;;;;;;;10.13;5.80;;;;;;;;;;4976264;28;20023;-75
2021/08/02 03:45:52;;;;;;;13.05;7.18;;;;;;;;;;4970206;28;20038;-74
2021/08/02 03:48:20;;;;;;;15.43;7.40;;;;;;;;;;4972156;28;20122;-74
2021/08/02 03:50:45;;;;;;;12.13;6.70;;;;;;;;;;4972744;28;20517;-74
2021/08/02 03:53:11;;;;;;;14.10;5.93;;;;;;;;;;4941218;28;20054;-74
2021/08/02 03:55:36;;;;;;;14.10;6.03;;;;;;;;;;4941921;28;20030;-73
2021/08/02 03:58:02;;;;;;;10.43;5.88;;;;;;;;;;4952088;28;20071;-73
2021/08/02 04:00:28;;;;;;;9.75;5.32;;;;;;;;;;4954857;28;20046;-74
2021/08/02 04:02:53;;;;;;;10.98;4.95;;;;;;;;;;4973291;28;20057;-74
2021/08/02 04:05:19;;;;;;;8.45;4.93;;;;;;;;;;4956336;28;20042;-74
2021/08/02 04:07:46;;;;;;;8.52;5.53;;;;;;;;;;4977415;28;20100;-73
2021/08/02 04:10:12;;;;;;;8.30;5.10;;;;;;;;;;4974705;28;20042;-74
2021/08/02 04:12:38;;;;;;;11.15;5.18;;;;;;;;;;4973673;28;20033;-74
2021/08/02 04:15:05;;;;;;;10.52;5.18;;;;;;;;;;4971068;28;20038;-74
2021/08/02 04:17:30;;;;;;;14.52;5.50;;;;;;;;;;4970782;28;20037;-74
2021/08/02 04:19:55;;;;;;;8.55;5.68;;;;;;;;;;4956094;28;20398;-74
2021/08/02 04:22:21;;;;;;;10.35;5.10;;;;;;;;;;4970926;28;20034;-74
2021/08/02 04:24:46;;;;;;;11.68;5.45;;;;;;;;;;4969873;28;20126;-74
2021/08/02 04:27:11;;;;;;;9.40;5.10;;;;;;;;;;4969139;28;20026;-74
2021/08/02 04:29:37;;;;;;;11.35;5.30;;;;;;;;;;4954985;28;20055;-73
2021/08/02 04:32:02;;;;;;;8.20;5.60;;;;;;;;;;4975158;28;20039;-74
2021/08/02 04:34:27;;;;;;;9.95;5.18;;;;;;;;;;4972812;28;20030;-74
2021/08/02 04:36:53;;;;;;;10.43;5.47;;;;;;;;;;4971369;28;20023;-74
2021/08/02 04:39:18;;;;;;;12.98;5.53;;;;;;;;;;4956973;28;20057;-74
2021/08/02 04:41:44;;;;;;;12.80;5.68;;;;;;;;;;4958571;28;20031;-74
2021/08/02 04:44:09;;;;;;;9.20;5.35;;;;;;;;;;4974201;28;20066;-74
2021/08/02 04:46:34;;;;;;;7.40;5.13;;;;;;;;;;4955968;28;20046;-73
2021/08/02 04:49:00;;;;;;;9.50;5.15;;;;;;;;;;4976829;28;20049;-74
2021/08/02 04:51:25;;;;;;;9.82;5.65;;;;;;;;;;4956797;28;20039;-74
2021/08/02 04:53:52;;;;;;;11.57;6.00;;;;;;;;;;4955555;28;20033;-74
2021/08/02 04:56:17;;;;;;;10.20;5.25;;;;;;;;;;4952085;28;20034;-74
2021/08/02 04:58:43;;;;;;;9.05;4.93;;;;;;;;;;4969342;28;20035;-74
2021/08/02 05:01:08;;;;;;;11.07;5.57;;;;;;;;;;4959207;28;20065;-74
2021/08/02 05:03:33;;;;;;;9.85;5.50;;;;;;;;;;4974948;28;20023;-74
2021/08/02 05:06:01;;;;;;;8.70;5.15;;;;;;;;;;4968676;28;20035;-74
2021/08/02 05:08:26;;;;;;;7.82;4.65;;;;;;;;;;4952667;28;20093;-74
2021/08/02 05:10:52;;;;;;;6.55;4.40;;;;;;;;;;4956172;28;20570;-74
2021/08/02 05:13:17;;;;;;;9.10;4.57;;;;;;;;;;4971731;28;20027;-74
2021/08/02 05:15:45;;;;;;;6.55;4.28;;;;;;;;;;4955101;28;20038;-74
2021/08/02 05:18:11;;;;;;;10.45;4.45;;;;;;;;;;4950851;28;20086;-74
2021/08/02 05:20:36;;;;;;;9.55;4.50;;;;;;;;;;4969268;28;20031;-74
2021/08/02 05:23:02;;;;;;;8.48;4.38;;;;;;;;;;4967490;28;20037;-74
2021/08/02 05:25:29;;;;;;;7.68;4.13;;;;;;;;;;4974685;28;20061;-72
2021/08/02 05:27:55;;;;;;;8.38;4.50;;;;;;;;;;4975964;28;20031;-71
2021/08/02 05:30:21;;;;;;;6.43;3.80;;;;;;;;;;4979118;28;20050;-70
2021/08/02 05:32:47;;;;;;;7.63;4.30;;;;;;;;;;4974386;28;20100;-71
2021/08/02 05:35:13;;;;;;;8.07;4.00;;;;;;;;;;4956466;28;20046;-71
2021/08/02 05:37:38;;;;;;;6.75;3.45;;;;;;;;;;4973663;28;20034;-71
2021/08/02 05:40:06;;;;;;;8.95;4.50;;;;;;;;;;4969142;28;20043;-71
2021/08/02 05:42:31;;;;;;;8.30;4.30;;;;;;;;;;4956552;28;20385;-71
2021/08/02 05:44:57;;;;;;;7.32;3.78;;;;;;;;;;4969054;28;20030;-71
2021/08/02 05:47:22;;;;;;;6.47;3.97;;;;;;;;;;4969274;28;20253;-71
2021/08/02 05:49:47;;;;;;;7.47;4.20;;;;;;;;;;4969096;28;20041;-71
2021/08/02 05:52:13;;;;;;;7.15;4.40;;;;;;;;;;4953508;28;20031;-70
2021/08/02 05:54:38;;;;;;;8.57;4.35;;;;;;;;;;4971041;28;20129;-70
2021/08/02 05:57:04;;;;;;;9.10;4.35;;;;;;;;;;4971246;28;20049;-71
2021/08/02 05:59:29;;;;;;;8.38;4.18;;;;;;;;;;4955126;28;20644;-71
2021/08/02 06:01:58;;;;;;;7.18;3.80;;;;;;;;;;4971695;28;20403;-70
2021/08/02 06:04:24;;;;;;;8.82;3.75;;;;;;;;;;4973616;28;20639;-71
2021/08/02 06:06:49;;;;;;;5.63;3.50;;;;;;;;;;4974000;28;20536;-71
2021/08/02 06:09:15;;;;;;;9.18;3.92;;;;;;;;;;4951581;28;20598;-70
2021/08/02 06:11:40;;;;;;;6.97;3.80;;;;;;;;;;4969791;28;20124;-71
2021/08/02 06:14:05;;;;;;;6.80;4.28;;;;;;;;;;4967940;28;20717;-70
2021/08/02 06:16:31;;;;;;;8.13;3.83;;;;;;;;;;4969900;28;20034;-71
2021/08/02 06:18:57;;;;;;;9.90;3.67;;;;;;;;;;4970986;28;20072;-70
2021/08/02 06:21:22;;;;;;;6.15;3.30;;;;;;;;;;4968507;28;20078;-71
2021/08/02 06:23:48;;;;;;;5.85;3.60;;;;;;;;;;4973674;28;20030;-71
2021/08/02 06:26:13;;;;;;;9.23;3.85;;;;;;;;;;4969357;28;20527;-70
2021/08/02 06:28:41;;;;;;;8.93;4.25;;;;;;;;;;4967710;28;20031;-71
2021/08/02 06:31:06;;;;;;;6.05;4.18;;;;;;;;;;4968210;28;20030;-71
2021/08/02 06:33:31;;;;;;;8.57;4.25;;;;;;;;;;4968216;28;20062;-71
2021/08/02 06:35:57;;;;;;;5.32;3.83;;;;;;;;;;4950257;28;20541;-71
2021/08/02 06:38:22;;;;;;;9.82;3.92;;;;;;;;;;4970181;28;20035;-71
2021/08/02 06:40:48;;;;;;;9.90;3.90;;;;;;;;;;4970808;28;20468;-71
2021/08/02 06:43:13;;;;;;;6.22;3.70;;;;;;;;;;4970361;28;20039;-71
2021/08/02 06:45:42;;;;;;;7.50;3.83;;;;;;;;;;4950223;28;20034;-71
2021/08/02 06:48:07;;;;;;;11.85;4.20;;;;;;;;;;4973568;28;20495;-71
2021/08/02 06:50:33;;;;;;;6.07;3.50;;;;;;;;;;4973791;28;20411;-71
2021/08/02 06:52:58;;;;;;;5.28;3.42;;;;;;;;;;4970584;28;20460;-71
2021/08/02 06:55:23;;;;;;;4.57;3.05;;;;;;;;;;4967039;28;20110;-71
2021/08/02 06:57:49;;;;;;;9.02;3.70;;;;;;;;;;4962302;28;20640;-70
2021/08/02 07:00:14;;;;;;;6.40;3.47;;;;;;;;;;4959325;28;20027;-69
2021/08/02 07:02:42;;;;;;;7.35;3.50;;;;;;;;;;4954160;28;20505;-69
2021/08/02 07:05:08;;;;;;;8.50;3.22;;;;;;;;;;4971492;28;20034;-69
2021/08/02 07:07:33;;;;;;;6.28;3.20;;;;;;;;;;4971070;28;20043;-68
2021/08/02 07:09:58;;;;;;;6.85;3.40;;;;;;;;;;4971506;28;20201;-69
2021/08/02 07:12:25;;;;;;;10.23;3.35;;;;;;;;;;4967338;28;20149;-70
2021/08/02 07:14:51;;;;;;;6.75;3.08;;;;;;;;;;4968813;28;20421;-69
2021/08/02 07:17:16;;;;;;;8.85;3.55;;;;;;;;;;4952294;28;20038;-69
2021/08/02 07:19:42;;;;;;;4.68;3.08;;;;;;;;;;4962911;28;20046;-71
2021/08/02 07:22:07;;;;;;;8.40;3.20;;;;;;;;;;4948966;28;20058;-70
2021/08/02 07:24:32;;;;;;;4.57;2.75;;;;;;;;;;4955762;28;20043;-70
2021/08/02 07:26:58;;;;;;;6.65;2.95;;;;;;;;;;4970173;28;20034;-68
2021/08/02 07:29:23;;;;;;;6.32;3.10;;;;;;;;;;4971475;28;20070;-70
2021/08/02 07:31:48;;;;;;;6.60;3.17;;;;;;;;;;4952450;28;20026;-70
2021/08/02 07:34:14;;;;;;;5.13;2.90;;;;;;;;;;4953252;28;20476;-70
2021/08/02 07:36:39;;;;;;;7.50;2.63;;;;;;;;;;4968519;28;20093;-70
2021/08/02 07:39:05;;;;;;;6.97;2.80;;;;;;;;;;4971245;28;20030;-70
2021/08/02 07:41:31;;;;;;;5.20;2.45;;;;;;;;;;4970590;28;20458;-70
2021/08/02 07:43:56;;;;;;;6.40;2.55;;;;;;;;;;4969798;28;20035;-70
2021/08/02 07:46:22;;;;;;;6.43;2.88;;;;;;;;;;4969538;28;20370;-70
2021/08/02 07:48:51;;;;;;;7.38;2.53;;;;;;;;;;4959390;28;20424;-69
2021/08/02 07:51:17;;;;;;;5.97;2.70;;;;;;;;;;4972225;28;20088;-69
2021/08/02 07:53:42;;;;;;;5.35;2.60;;;;;;;;;;4959116;28;20031;-70
2021/08/02 07:56:07;;;;;;;3.75;2.30;;;;;;;;;;4937884;28;20032;-71
2021/08/02 07:58:33;;;;;;;5.85;2.65;;;;;;;;;;4975908;28;20031;-71
2021/08/02 08:00:58;;;;;;;4.15;2.55;;;;;;;;;;4954341;28;20019;-69
2021/08/02 08:03:25;;;;;;;5.72;2.60;;;;;;;;;;4952352;28;20033;-72
2021/08/02 08:05:51;;;;;;;;;;;;;;;;;;4951423;28;20225;-70
2021/08/02 08:08:16;;;;;;;5.90;2.70;;;;;;;;;;4940240;28;19993;-71
2021/08/02 08:10:41;;;;;;;6.53;2.63;;;;;;;;;;4965526;28;20061;-71
2021/08/02 08:13:07;;;;;;;4.93;2.50;;;;;;;;;;4951245;28;20046;-72
2021/08/02 08:15:32;;;;;;;4.45;2.42;;;;;;;;;;4969948;28;20026;-72
2021/08/02 08:17:58;;;;;;;5.32;2.47;;;;;;;;;;4975278;28;20806;-72
2021/08/02 08:20:23;;;;;;;4.80;2.45;;;;;;;;;;4954483;28;20043;-71
2021/08/02 08:22:52;;;;;;;5.82;2.50;;;;;;;;;;4970272;28;20034;-69
2021/08/02 08:25:18;;;;;;;9.32;2.55;;;;;;;;;;4966553;28;20042;-68
2021/08/02 08:27:43;;;;;;;4.72;2.45;;;;;;;;;;4964936;28;20038;-68
2021/08/02 08:30:10;;;;;;;4.30;2.20;;;;;;;;;;4950259;28;20085;-68
2021/08/02 08:32:35;;;;;;;5.28;2.63;;;;;;;;;;4919644;28;20405;-69
2021/08/02 08:35:01;;;;;;;6.05;2.30;;;;;;;;;;4970701;28;20966;-70
2021/08/02 08:37:26;;;;;;;5.97;2.13;;;;;;;;;;4971029;28;20034;-69
2021/08/02 08:39:52;;;;;;;3.22;2.00;;;;;;;;;;4968694;28;20109;-68
2021/08/02 08:42:17;;;;;;;10.18;2.40;;;;;;;;;;4967761;28;20448;-68
2021/08/02 08:44:43;;;;;;;5.28;2.22;;;;;;;;;;4953583;28;20408;-68
2021/08/02 08:47:08;;;;;;;5.35;2.08;;;;;;;;;;4970743;28;20030;-69
2021/08/02 08:49:34;;;;;;;6.15;2.15;;;;;;;;;;4966695;28;20627;-67
2021/08/02 08:52:01;;;;;;;4.50;2.33;;;;;;;;;;4970084;28;20041;-69
2021/08/02 08:54:34;;;;;;;4.63;2.25;;;;;;;;;;4969420;28;20031;-68
2021/08/02 08:56:59;;;;;;;6.80;2.28;;;;;;;;;;4966032;28;20539;-66
2021/08/02 08:59:25;;;;;;;8.90;2.40;;;;;;;;;;4968988;28;20591;-68
2021/08/02 09:02:01;;;;;;;6.55;1.90;;;;;;;;;;4951620;28;20022;-69
2021/08/02 09:04:30;;;;;;;4.15;2.15;;;;;;;;;;4967108;28;20027;-69
2021/08/02 09:06:57;;;;;;;4.55;2.10;;;;;;;;;;4967979;28;20037;-68
2021/08/02 09:09:28;;;;;;;4.00;1.92;;;;;;;;;;4968101;28;20031;-68
2021/08/02 09:12:06;;;;;;;4.78;1.95;;;;;;;;;;4967603;28;20114;-71
2021/08/02 09:14:31;;;;;;;7.53;2.30;;;;;;;;;;4967985;28;20039;-71
2021/08/02 09:17:00;;;;;;;7.65;2.40;;;;;;;;;;4969310;28;20030;-71
2021/08/02 09:19:45;;;;;;;4.40;1.98;;;;;;;;;;4968057;28;20149;-71
2021/08/02 09:22:11;;;;;;;4.88;2.30;;;;;;;;;;4949750;28;20034;-74
2021/08/02 09:24:37;;;;;;;4.75;2.22;;;;;;;;;;4953434;28;20327;-71
2021/08/02 09:27:02;;;;;;;4.43;2.10;;;;;;;;;;4947347;28;20043;-71
2021/08/02 09:29:28;;;;;;;5.40;2.15;;;;;;;;;;4969725;28;20050;-71
2021/08/02 09:31:54;;;;;;;5.40;2.20;;;;;;;;;;4972682;28;20247;-71
2021/08/02 09:34:22;;;;;;;6.70;2.42;;;;;;;;;;4971688;28;20039;-70
2021/08/02 09:36:53;;;;;;;6.95;2.40;;;;;;;;;;4964730;28;20035;-71
2021/08/02 09:39:19;;;;;;;6.60;2.63;;;;;;;;;;4969832;28;20041;-71
2021/08/02 09:41:44;;;;;;;6.03;2.20;;;;;;;;;;4969853;28;20269;-71
2021/08/02 09:44:23;;;;;;;6.53;2.20;;;;;;;;;;4968141;28;20023;-71
2021/08/02 09:47:07;;;;;;;7.55;2.30;;;;;;;;;;4965773;28;20031;-71
2021/08/02 09:49:46;;;;;;;7.25;2.47;;;;;;;;;;4966648;28;20094;-71
2021/08/02 09:52:12;;;;;;;7.00;2.10;;;;;;;;;;4951572;28;20399;-72
2021/08/02 09:54:40;;;;;;;4.68;2.30;;;;;;;;;;4969763;28;20084;-72
2021/08/02 09:57:05;;;;;;;6.38;2.55;;;;;;;;;;4969101;28;20043;-71
2021/08/02 09:59:31;;;;;;;6.68;2.65;;;;;;;;;;4966364;28;20038;-71
2021/08/02 10:01:57;;;;;;;5.22;2.03;;;;;;;;;;4963084;28;20356;-71
2021/08/02 10:04:23;;;;;;;6.40;2.55;;;;;;;;;;4951500;28;20062;-70
2021/08/02 10:06:49;;;;;;;6.25;2.47;;;;;;;;;;4950759;28;20035;-71
2021/08/02 10:09:14;;;;;;;3.80;2.00;;;;;;;;;;4966871;28;20070;-71
2021/08/02 10:11:41;;;;;;;4.25;2.05;;;;;;;;;;4966190;28;20042;-71
2021/08/02 10:14:06;;;;;;;4.07;2.23;;;;;;;;;;4968024;28;20181;-70
2021/08/02 10:16:32;;;;;;;6.03;2.20;;;;;;;;;;4951821;28;20275;-70
2021/08/02 10:19:02;;;;;;;6.22;2.03;;;;;;;;;;4949108;28;20097;-71
2021/08/02 10:21:38;;;;;;;4.45;2.20;;;;;;;;;;4947250;28;20062;-70
2021/08/02 10:24:08;;;;;;;5.97;2.30;;;;;;;;;;4966772;28;20038;-70
2021/08/02 10:26:34;;;;;;;5.90;2.28;;;;;;;;;;4964728;28;20048;-71
2021/08/02 10:29:00;;;;;;;5.00;2.05;;;;;;;;;;4966348;28;20399;-71
2021/08/02 10:31:27;;;;;;;5.95;2.20;;;;;;;;;;4967380;28;20022;-72
2021/08/02 10:33:53;;;;;;;6.85;2.47;;;;;;;;;;4957040;28;20039;-71
2021/08/02 10:36:19;;;;;;;5.30;2.23;;;;;;;;;;4975120;28;20125;-71
2021/08/02 10:38:46;;;;;;;4.43;2.00;;;;;;;;;;4927076;28;20034;-71
2021/08/02 10:41:22;;;;;;;4.68;2.30;;;;;;;;;;4974316;28;20062;-71
2021/08/02 10:43:47;;;;;;;4.57;2.13;;;;;;;;;;4925600;28;20581;-71
2021/08/02 10:46:17;;;;;;;5.32;2.63;;;;;;;;;;4973440;28;20023;-71
2021/08/02 10:48:44;;;;;;;3.30;1.80;;;;;;;;;;4953682;28;20030;-70
2021/08/02 10:51:10;;;;;;;9.45;2.10;;;;;;;;;;4972401;28;20026;-74
2021/08/02 10:53:36;;;;;;;4.90;1.60;;;;;;;;;;4976936;28;20042;-74
2021/08/02 10:56:01;;;;;;;3.53;1.50;;;;;;;;;;4974907;28;20027;-73
2021/08/02 10:58:32;;;;;;;2.88;1.63;;;;;;;;;;4958991;28;20031;-72
2021/08/02 11:00:58;;;;;;;2.53;1.50;;;;;;;;;;4956595;28;20456;-72
2021/08/02 11:03:34;;;;;;;3.15;1.63;;;;;;;;;;4956863;28;20128;-72
2021/08/02 11:06:06;;;;;;;3.13;1.92;;;;;;;;;;4974334;28;20026;-73
2021/08/02 11:08:42;;;;;;;6.75;1.90;;;;;;;;;;4972828;28;20031;-73
2021/08/02 11:11:08;;;;;;;4.00;1.85;;;;;;;;;;4955144;28;20070;-74
2021/08/02 11:13:33;;;;;;;4.33;2.20;;;;;;;;;;4972629;28;20038;-73
2021/08/02 11:16:00;;;;;;;7.40;2.13;;;;;;;;;;4975061;28;20319;-73
2021/08/02 11:18:26;;;;;;;5.93;2.40;;;;;;;;;;4942528;28;20034;-73
2021/08/02 11:20:52;;;;;;;5.25;2.00;;;;;;;;;;4956833;28;20326;-73
2021/08/02 11:23:17;;;;;;;4.13;2.20;;;;;;;;;;4955957;28;20030;-73
2021/08/02 11:25:43;;;;;;;4.40;2.15;;;;;;;;;;4956359;28;20450;-73
2021/08/02 11:28:08;;;;;;;4.38;2.20;;;;;;;;;;4955650;28;20030;-72
2021/08/02 11:30:34;;;;;;;5.10;2.15;;;;;;;;;;4972443;28;20041;-72
2021/08/02 11:33:02;;;;;;;6.03;2.22;;;;;;;;;;4970823;28;20035;-73
2021/08/02 11:35:32;;;;;;;4.22;2.22;;;;;;;;;;4951799;28;20426;-73
2021/08/02 11:37:57;;;;;;;4.18;2.10;;;;;;;;;;4973771;28;20034;-72
2021/08/02 11:40:26;;;;;;;5.35;2.20;;;;;;;;;;4972935;28;20396;-72
2021/08/02 11:43:00;;;;;;;4.05;2.10;;;;;;;;;;4953235;28;20045;-72
2021/08/02 11:45:26;;;;;;;5.00;2.28;;;;;;;;;;4968751;28;20054;-71
2021/08/02 11:47:52;;;;;;;3.70;2.10;;;;;;;;;;4969705;28;20067;-71
2021/08/02 11:50:21;;;;;;;3.42;2.20;;;;;;;;;;4968320;28;20081;-71
2021/08/02 11:52:56;;;;;;;4.93;2.30;;;;;;;;;;4955022;28;20027;-70
2021/08/02 11:55:21;;;;;;;6.30;2.38;;;;;;;;;;4970492;28;20539;-71
2021/08/02 11:57:55;;;;;;;4.95;2.03;;;;;;;;;;4969771;28;20049;-71
2021/08/02 12:00:20;;;;;;;7.75;2.00;;;;;;;;;;4968145;28;20035;-71
2021/08/02 12:02:47;;;;;;;3.63;2.03;;;;;;;;;;4969941;28;20031;-72
2021/08/02 12:05:31;;;;;;;3.72;2.03;;;;;;;;;;4952123;28;20045;-71
2021/08/02 12:08:13;;;;;;;3.33;1.80;;;;;;;;;;4967945;28;20090;-72
2021/08/02 12:10:38;;;;;;;3.90;2.00;;;;;;;;;;4970069;28;20043;-72
2021/08/02 12:13:05;;;;;;;2.72;1.70;;;;;;;;;;4953447;28;20033;-72
2021/08/02 12:15:31;;;;;;;3.53;1.70;;;;;;;;;;4970395;28;20053;-70
2021/08/02 12:17:57;;;;;;;3.22;1.60;;;;;;;;;;4973238;28;20439;-71
2021/08/02 12:20:33;;;;;;;3.20;1.70;;;;;;;;;;4952159;28;20613;-72
2021/08/02 12:22:59;;;;;;;;;;;;;;;;;;4968841;28;20049;-72
2021/08/02 12:25:33;;;;;;;2.07;1.43;;;;;;;;;;4953781;28;20299;-72
2021/08/02 12:27:59;;;;;;;2.63;1.52;;;;;;;;;;4954179;28;20074;-72
2021/08/02 12:30:26;;;;;;;2.40;1.50;;;;;;;;;;4972956;28;20772;-72
2021/08/02 12:32:51;;;;;;;;;;;;;;;;;;4951787;28;20069;-72
2021/08/02 12:35:17;;;;;;;3.30;1.47;;;;;;;;;;4967353;28;19968;-69
2021/08/02 12:37:43;;;;;;;2.95;1.65;;;;;;;;;;4951491;28;20062;-68
2021/08/02 12:40:12;;;;;;;2.85;1.70;;;;;;;;;;4968531;28;20411;-69
2021/08/02 12:42:41;;;;;;;4.53;1.55;;;;;;;;;;4966959;28;20118;-69
2021/08/02 12:45:08;;;;;;;2.17;1.50;;;;;;;;;;4969139;28;20545;-68
2021/08/02 12:47:33;;;;;;;3.28;1.33;;;;;;;;;;4967651;28;20062;-69
2021/08/02 12:50:00;;;;;;;3.30;1.48;;;;;;;;;;4967415;28;20507;-67
2021/08/02 12:52:27;;;;;;;2.10;1.50;;;;;;;;;;4964132;28;20026;-67
2021/08/02 12:54:53;;;;;;;3.45;1.50;;;;;;;;;;4950121;28;20468;-67
2021/08/02 12:57:19;;;;;;;1.95;1.33;;;;;;;;;;4969209;28;20045;-68
2021/08/02 12:59:44;;;;;;;3.53;1.80;;;;;;;;;;4973496;28;20137;-66
2021/08/02 13:02:10;;;;;;;3.03;1.47;;;;;;;;;;4950507;28;20380;-68
2021/08/02 13:04:35;;;;;;;2.97;1.40;;;;;;;;;;4971707;28;20026;-67
2021/08/02 13:07:03;;;;;;;3.33;1.70;;;;;;;;;;4966237;28;20030;-68
2021/08/02 13:09:28;;;;;;;2.67;1.85;;;;;;;;;;4966455;28;20078;-67
2021/08/02 13:11:54;;;;;;;3.03;1.60;;;;;;;;;;4968538;28;20555;-67
2021/08/02 13:14:19;;;;;;;4.37;1.50;;;;;;;;;;4967922;28;20126;-68
2021/08/02 13:16:44;;;;;;;5.13;2.00;;;;;;;;;;4966564;28;20026;-67
2021/08/02 13:19:10;;;;;;;4.40;1.90;;;;;;;;;;4967894;28;20038;-68
2021/08/02 13:21:35;;;;;;;3.50;1.60;;;;;;;;;;4968426;28;20411;-69
2021/08/02 13:26:57;;;;;;;3.67;1.55;;;;;;;;;;4950452;28;20071;-71
2021/08/02 13:29:28;;;;;;;2.83;1.70;;;;;;;;;;4965080;28;20459;-71
2021/08/02 13:31:54;;;;;;;3.95;1.45;;;;;;;;;;4953271;28;20034;-72
2021/08/02 13:34:19;;;;;;;2.50;1.40;;;;;;;;;;4969237;28;20061;-71
2021/08/02 13:36:45;;;;;;;4.90;1.60;;;;;;;;;;4969352;28;20030;-70
2021/08/02 13:39:10;;;;;;;5.10;1.60;;;;;;;;;;4949943;28;20034;-71
2021/08/02 13:41:38;;;;;;;2.67;1.50;;;;;;;;;;4966170;28;20035;-71
2021/08/02 13:44:04;;;;;;;3.07;1.60;;;;;;;;;;4952686;28;20388;-71
2021/08/02 13:46:29;;;;;;;2.53;1.63;;;;;;;;;;4970608;28;20023;-71
2021/08/02 13:48:56;;;;;;;2.80;1.43;;;;;;;;;;4950479;28;20046;-71
2021/08/02 13:51:24;;;;;;;2.97;1.50;;;;;;;;;;4969336;28;20069;-71
2021/08/02 13:53:50;;;;;;;3.83;2.00;;;;;;;;;;4935932;28;20042;-71
2021/08/02 13:56:15;;;;;;;3.30;1.60;;;;;;;;;;4973000;28;20532;-71
2021/08/02 13:58:41;;;;;;;3.80;1.70;;;;;;;;;;4952175;28;20034;-71
2021/08/02 14:01:06;;;;;;;4.33;1.70;;;;;;;;;;4956068;28;20512;-72
2021/08/02 14:03:32;;;;;;;3.20;1.70;;;;;;;;;;4950094;28;20030;-72
2021/08/02 14:05:58;;;;;;;3.38;1.60;;;;;;;;;;4967805;28;20452;-72
2021/08/02 14:08:24;;;;;;;2.23;1.50;;;;;;;;;;4969009;28;20033;-72
2021/08/02 14:10:49;;;;;;;3.20;1.70;;;;;;;;;;4933143;28;20081;-72
2021/08/02 14:13:15;;;;;;;5.80;1.80;;;;;;;;;;4951900;28;20470;-70
2021/08/02 14:15:47;;;;;;;2.90;1.70;;;;;;;;;;4955735;28;20030;-70
2021/08/02 14:18:14;;;;;;;1.83;1.40;;;;;;;;;;4953484;28;20477;-70
2021/08/02 14:20:39;;;;;;;2.90;1.60;;;;;;;;;;4953640;28;20038;-71
2021/08/02 14:23:05;;;;;;;3.07;1.40;;;;;;;;;;4977278;28;20101;-70
2021/08/02 14:25:31;;;;;;;4.63;1.60;;;;;;;;;;4979877;28;20118;-69
2021/08/02 14:27:57;;;;;;;5.88;1.63;;;;;;;;;;4967828;28;20058;-68
2021/08/02 14:30:22;;;;;;;5.65;1.60;;;;;;;;;;4976929;28;20035;-71
2021/08/02 14:32:48;;;;;;;2.50;1.43;;;;;;;;;;4961389;28;20027;-72
2021/08/02 14:35:13;;;;;;;4.00;1.53;;;;;;;;;;4963525;28;20061;-72
2021/08/02 14:37:42;;;;;;;2.67;1.50;;;;;;;;;;4949495;28;20042;-73
2021/08/02 14:40:09;;;;;;;5.55;1.65;;;;;;;;;;4954558;28;20027;-72
2021/08/02 14:42:35;;;;;;;4.90;1.70;;;;;;;;;;4966175;28;20726;-72
2021/08/02 14:45:02;;;;;;;3.03;1.53;;;;;;;;;;4968167;28;20507;-72
2021/08/02 14:47:31;;;;;;;2.53;1.60;;;;;;;;;;4968265;28;20023;-73